• Join FlightAware (Why Join?)
  • Login
  • US Flag 
07:52AM EDT


 

Airport Tracker/Info


-or-


 

Live Flight TrackerFlight Track Log ✈ TRS9348 ✈ 23-May-2013 ✈ KVQQ - KATL

Flight Track Log - Related Links

Times and Time Zones

All times are in EDT time to prevent confusion due to time zone crossing. See the TRS9348 flight status page for this flight to view local times or setup timezone preferences in your user account.

Time Position Orientation Groundspeed Altitude Reporting Facility
EDT Latitude Longitude Course Direction KTS MPH feet Rate Location/Type
10:56PM 30.2292 -81.8781 341° North 197 227 1,000  Level Jacksonville Center
10:57PM 30.2958 -81.8822 357° North 253 291 4,400 4,320 Climbing Jacksonville Center
10:58PM 30.3669 -81.8911 354° North 256 295 10,200 4,500 Climbing Jacksonville Center
10:59PM 30.4003 -81.8906 North 286 329 11,300 2,700 Climbing Jacksonville Center
11:00PM 30.4964 -81.8944 358° North 322 371 14,300 2,580 Climbing Jacksonville Center
11:01PM 30.6072 -81.9053 355° North 361 415 16,500 2,940 Climbing Jacksonville Center
11:02PM 30.6599 -82.0406 341° North  Level FlightAware Approximate
11:02PM 30.7097 -81.9528 338° Northwest 380 437 20,200  Level Jacksonville Center
11:03PM 30.8125 -82.0025 337° Northwest 392 451 23,000 3,600 Climbing Jacksonville Center
11:04PM 30.9108 -82.0450 340° North 387 445 27,400 2,940 Climbing Jacksonville Center
11:05PM 31.0094 -82.0950 337° Northwest 381 438 29,000 780 Climbing Jacksonville Center
11:06PM 31.1203 -82.1475 338° Northwest 397 457 29,000  Level Jacksonville Center
11:07PM 31.2272 -82.1978 338° Northwest 409 471 29,000  Level Jacksonville Center
11:08PM 31.3422 -82.2503 339° North 421 484 29,000  Level Jacksonville Center
11:09PM 31.4531 -82.3008 339° North 426 490 29,000  Level Jacksonville Center
11:11PM 31.6689 -82.4042 338° Northwest 450 518 29,000  Level Atlanta Center
11:12PM 31.7825 -82.4581 338° Northwest 450 518 29,000  Level Atlanta Center
11:13PM 31.8836 -82.5394 326° Northwest 444 511 29,000  Level Atlanta Center
11:14PM 31.9806 -82.6311 321° Northwest 444 511 29,000  Level Atlanta Center
11:15PM 32.0756 -82.7203 322° Northwest 439 505 29,000  Level Atlanta Center
11:16PM 32.1683 -82.8094 321° Northwest 439 505 29,000  Level Atlanta Center
11:17PM 32.2653 -82.8992 322° Northwest 439 505 29,000  Level Atlanta Center
11:18PM 32.3600 -82.9864 322° Northwest 434 499 29,000  Level Atlanta Center
11:19PM 32.4547 -83.0789 321° Northwest 434 499 29,000  Level Atlanta Center
11:20PM 32.5514 -83.1689 322° Northwest 434 499 29,000  Level Atlanta Center
11:21PM 32.6458 -83.2592 321° Northwest 439 505 29,000  Level Atlanta Center
11:22PM 32.7403 -83.3522 320° Northwest 439 505 29,000 -1,200 Level Atlanta Center
11:23PM 32.8283 -83.4356 322° Northwest 433 498 26,600 -3,060 Descending Atlanta Center
11:24PM 32.9144 -83.5192 321° Northwest 421 484 22,900 -3,300 Descending Atlanta Center
11:25PM 32.9919 -83.5956 320° Northwest 401 461 20,100 -2,820 Descending Atlanta Center
11:26PM 33.0694 -83.6694 321° Northwest 364 419 17,300 -2,760 Descending Atlanta Center
11:27PM 33.1406 -83.7386 321° Northwest 339 390 14,600 -2,760 Descending Atlanta Center
11:27PM 33.1667 -83.7500 340° North 333 383 13,900 -2,280 Descending Atlanta TRACON
11:28PM 33.2167 -83.8167 312° West 316 364 12,000 -1,680 Descending Atlanta TRACON
11:29PM 33.2667 -83.8833 312° West 271 312 10,900 -1,140 Descending Atlanta TRACON
11:30PM 33.3017 -83.9419 306° West 274 315 10,000 -1,560 Descending Atlanta Center
11:31PM 33.3497 -84.0014 314° West 262 302 7,900 -1,740 Descending Atlanta Center
11:32PM 33.4164 -84.0314 339° North 249 287 6,600 -1,020 Descending Atlanta Center
11:33PM 33.4750 -84.0536 342° North 232 267 5,900 -900 Descending Atlanta Center
11:34PM 33.5333 -84.0636 352° North 219 252 4,800 -900 Descending Atlanta Center
11:35PM 33.5833 -84.0936 333° Northwest 204 235 4,100 -720 Descending Atlanta Center
11:37PM 33.6167 -84.2000 291° West 169 194 2,700 -480 Descending Atlanta TRACON
11:38PM 33.6333 -84.2500 292° West 166 191 2,700 -60 Level Atlanta TRACON
11:39PM 33.6500 -84.3167 287° West 162 186 2,600 -360 Descending Atlanta TRACON
11:40PM 33.6500 -84.3500 270° West 110 127 2,000 -600 Descending Atlanta TRACON
11:41PM 33.6500 -84.3833 270° West 109 125 1,400 -600 Descending Atlanta TRACON
11:43PM 33.6367 -84.4279 270° West  Level Estimated
11:50PM 33.6367 -84.4279 64° Northeast  Level Estimated